首页
METAR-TAF:

METAR-TAF

机场 :

莫比尔, 阿拉巴马州, 美国

纬度: 30-36-50N, 经度: 088-03-48W, 海拔: 7米

当前天气观测

该预报发布于44分钟前的09:53 UTC
风速12节,风向北转西北
温度 8°C
湿度 81%
气压 1023 hPa
能見度: 16.1公里
多云层高于4200英尺
阴天层高于9000英尺

METAR: KBFM 150953Z 33012KT 10SM BKN042 OVC090 08/05 A3021 RMK AO2 SLP230 T00780050

时间: 04:37 (10:37 UTC)

预报

该预报发布于4小时和59分钟前的05:38 UTC
预报有效从15日的 06点(UTC)到 16日的 06点(UTC)
风速10节,风向
能見度: 10公里
多云层高于10000英尺
从 15日的 1500点(UTC)
风速12节,风向
能見度: 10公里
少量云层高于25000英尺
从 16日的 0000点(UTC)
风速11节,风向北转西北
能見度: 10公里
天空无云

TAF: KBFM 150538Z 1506/1606 35010KT P6SM BKN100 FM151500 36012KT P6SM FEW250 FM160000 34011KT P6SM SKC

超过4000个机场的气象观测和天气预报(METAR&TAF报告)。

可查询的气象台以黄色和红色小点在地图上表示。

将鼠标移到小点上方,可查看气象台名称。

然后点击查看天气观测和预报。

如需切换地图:点击带黑十字的绿色按钮放大地图;点击带横线的绿色按钮缩小地图;或者点击绿色箭头查看邻近地区的地图。


METAR-TAF: